Terminal Aerodrome Forecast
Issued by NWS Wilmington, OH

Current Version | Previous Version | Text Only | Print | Product List | Glossary Off
Versions: 1 2 3 4 5 6 7 8 9 10 11 12 13 14

494
FTUS41 KILN 171930 AAA
TAFDAY
TAF AMD
KDAY 171930Z 1720/1818 21012KT P6SM FEW250
     FM180000 20003KT P6SM FEW250
     FM181400 19009KT P6SM SKC=

USA.gov is the U.S. government's official web portal to all federal, state and local government web resources and services.